sensor_id;sensor_type;location;lat;lon;timestamp;pressure;altitude;pressure_sealevel;temperature;humidity
53715;BME280;39608;55.630;37.864;2022-08-19T00:03:06;100105.38;;;22.57;45.38
53715;BME280;39608;55.630;37.864;2022-08-19T00:08:08;100103.78;;;22.56;45.61
53715;BME280;39608;55.630;37.864;2022-08-19T00:13:12;100105.06;;;22.62;45.41
53715;BME280;39608;55.630;37.864;2022-08-19T00:18:15;100120.34;;;22.56;45.18
53715;BME280;39608;55.630;37.864;2022-08-19T00:23:17;100125.38;;;22.50;45.40
53715;BME280;39608;55.630;37.864;2022-08-19T00:28:20;100133.56;;;22.47;45.35
53715;BME280;39608;55.630;37.864;2022-08-19T00:33:23;100123.53;;;22.38;45.48
53715;BME280;39608;55.630;37.864;2022-08-19T00:38:25;100122.66;;;22.34;45.46
53715;BME280;39608;55.630;37.864;2022-08-19T00:43:29;100138.41;;;22.34;45.43
53715;BME280;39608;55.630;37.864;2022-08-19T00:48:32;100137.06;;;22.28;45.65
53715;BME280;39608;55.630;37.864;2022-08-19T00:53:36;100149.19;;;22.23;45.79
53715;BME280;39608;55.630;37.864;2022-08-19T00:58:39;100154.53;;;22.16;45.58
53715;BME280;39608;55.630;37.864;2022-08-19T01:03:41;100166.03;;;22.02;45.89
53715;BME280;39608;55.630;37.864;2022-08-19T01:08:44;100159.09;;;21.92;46.27
53715;BME280;39608;55.630;37.864;2022-08-19T01:13:48;100165.06;;;21.94;46.16
53715;BME280;39608;55.630;37.864;2022-08-19T01:18:52;100156.97;;;21.85;46.24
53715;BME280;39608;55.630;37.864;2022-08-19T01:24:00;100152.22;;;21.86;45.82
53715;BME280;39608;55.630;37.864;2022-08-19T01:29:02;100167.72;;;21.75;46.18
53715;BME280;39608;55.630;37.864;2022-08-19T01:34:05;100157.28;;;21.68;45.93
53715;BME280;39608;55.630;37.864;2022-08-19T01:39:12;100150.97;;;21.67;45.81
53715;BME280;39608;55.630;37.864;2022-08-19T01:44:15;100137.97;;;21.68;45.61
53715;BME280;39608;55.630;37.864;2022-08-19T01:49:24;100116.59;;;21.65;45.77
53715;BME280;39608;55.630;37.864;2022-08-19T01:54:28;100158.53;;;21.70;46.19
53715;BME280;39608;55.630;37.864;2022-08-19T01:59:31;100159.63;;;21.66;46.33
53715;BME280;39608;55.630;37.864;2022-08-19T02:04:37;100159.41;;;21.59;46.14
53715;BME280;39608;55.630;37.864;2022-08-19T02:09:42;100159.53;;;21.50;46.36
53715;BME280;39608;55.630;37.864;2022-08-19T02:14:44;100160.41;;;21.38;46.51
53715;BME280;39608;55.630;37.864;2022-08-19T02:19:46;100149.19;;;21.31;46.54
53715;BME280;39608;55.630;37.864;2022-08-19T02:24:50;100158.69;;;21.33;46.82
53715;BME280;39608;55.630;37.864;2022-08-19T02:29:53;100168.03;;;21.29;46.64
53715;BME280;39608;55.630;37.864;2022-08-19T02:34:55;100166.78;;;21.26;47.11
53715;BME280;39608;55.630;37.864;2022-08-19T02:39:59;100181.84;;;21.29;47.03
53715;BME280;39608;55.630;37.864;2022-08-19T02:45:02;100175.06;;;21.26;46.97
53715;BME280;39608;55.630;37.864;2022-08-19T02:50:06;100184.41;;;21.22;47.12
53715;BME280;39608;55.630;37.864;2022-08-19T02:55:09;100180.84;;;21.21;47.19
53715;BME280;39608;55.630;37.864;2022-08-19T03:00:12;100181.31;;;21.11;47.53
53715;BME280;39608;55.630;37.864;2022-08-19T03:05:15;100190.41;;;21.11;47.76
53715;BME280;39608;55.630;37.864;2022-08-19T03:10:19;100186.47;;;21.12;47.86
53715;BME280;39608;55.630;37.864;2022-08-19T03:15:21;100192.63;;;21.06;48.19
53715;BME280;39608;55.630;37.864;2022-08-19T03:20:23;100173.00;;;20.95;48.18
53715;BME280;39608;55.630;37.864;2022-08-19T03:25:27;100201.34;;;21.08;48.07
53715;BME280;39608;55.630;37.864;2022-08-19T03:30:29;100198.47;;;21.04;48.27
53715;BME280;39608;55.630;37.864;2022-08-19T03:35:32;100190.19;;;21.04;48.34
53715;BME280;39608;55.630;37.864;2022-08-19T03:40:38;100183.72;;;21.12;48.36
53715;BME280;39608;55.630;37.864;2022-08-19T03:45:40;100177.19;;;21.17;48.45
53715;BME280;39608;55.630;37.864;2022-08-19T03:50:43;100184.50;;;21.25;48.40
53715;BME280;39608;55.630;37.864;2022-08-19T03:55:46;100193.19;;;21.40;48.04
53715;BME280;39608;55.630;37.864;2022-08-19T04:00:49;100191.69;;;21.42;48.16
53715;BME280;39608;55.630;37.864;2022-08-19T04:05:51;100195.91;;;21.52;48.18
53715;BME280;39608;55.630;37.864;2022-08-19T04:10:55;100193.44;;;21.63;47.63
53715;BME280;39608;55.630;37.864;2022-08-19T04:15:57;100197.09;;;21.67;47.59
53715;BME280;39608;55.630;37.864;2022-08-19T04:20:59;100208.00;;;21.76;47.66
53715;BME280;39608;55.630;37.864;2022-08-19T04:26:03;100204.59;;;21.82;47.62
53715;BME280;39608;55.630;37.864;2022-08-19T04:31:05;100215.50;;;21.91;47.50
53715;BME280;39608;55.630;37.864;2022-08-19T04:36:10;100216.28;;;21.92;47.64
53715;BME280;39608;55.630;37.864;2022-08-19T04:41:19;100218.81;;;21.97;47.25
53715;BME280;39608;55.630;37.864;2022-08-19T04:46:39;100205.59;;;21.90;47.67
53715;BME280;39608;55.630;37.864;2022-08-19T04:51:46;100208.72;;;21.88;47.71
53715;BME280;39608;55.630;37.864;2022-08-19T04:56:50;100219.78;;;22.04;47.79
53715;BME280;39608;55.630;37.864;2022-08-19T05:01:53;100216.94;;;22.01;47.71
53715;BME280;39608;55.630;37.864;2022-08-19T05:06:57;100207.38;;;22.14;47.50
53715;BME280;39608;55.630;37.864;2022-08-19T05:12:00;100213.81;;;22.50;47.04
53715;BME280;39608;55.630;37.864;2022-08-19T05:17:03;100201.19;;;22.85;46.86
53715;BME280;39608;55.630;37.864;2022-08-19T05:22:05;100203.00;;;23.32;46.19
53715;BME280;39608;55.630;37.864;2022-08-19T05:27:26;100209.19;;;23.88;45.16
53715;BME280;39608;55.630;37.864;2022-08-19T05:32:29;100204.38;;;24.31;44.59
53715;BME280;39608;55.630;37.864;2022-08-19T05:37:31;100210.84;;;24.62;43.79
53715;BME280;39608;55.630;37.864;2022-08-19T05:42:34;100207.09;;;24.77;43.87
53715;BME280;39608;55.630;37.864;2022-08-19T05:47:36;100210.94;;;24.69;43.58
53715;BME280;39608;55.630;37.864;2022-08-19T05:52:39;100215.47;;;24.81;43.16
53715;BME280;39608;55.630;37.864;2022-08-19T05:57:42;100211.16;;;25.44;42.96
53715;BME280;39608;55.630;37.864;2022-08-19T06:02:45;100213.13;;;26.23;41.00
53715;BME280;39608;55.630;37.864;2022-08-19T06:07:47;100219.06;;;26.18;41.09
53715;BME280;39608;55.630;37.864;2022-08-19T06:12:50;100227.22;;;25.62;41.33
53715;BME280;39608;55.630;37.864;2022-08-19T06:17:52;100228.28;;;25.20;42.15
53715;BME280;39608;55.630;37.864;2022-08-19T06:22:55;100221.44;;;25.10;42.14
53715;BME280;39608;55.630;37.864;2022-08-19T06:27:58;100227.94;;;25.25;42.56
53715;BME280;39608;55.630;37.864;2022-08-19T06:33:00;100230.47;;;25.68;41.49
53715;BME280;39608;55.630;37.864;2022-08-19T06:38:02;100229.09;;;25.51;41.74
53715;BME280;39608;55.630;37.864;2022-08-19T06:43:06;100236.06;;;25.37;42.27
53715;BME280;39608;55.630;37.864;2022-08-19T06:48:09;100234.53;;;25.43;42.52
53715;BME280;39608;55.630;37.864;2022-08-19T06:53:11;100223.25;;;25.63;42.20
53715;BME280;39608;55.630;37.864;2022-08-19T06:58:15;100226.19;;;25.77;41.11
53715;BME280;39608;55.630;37.864;2022-08-19T07:03:17;100230.06;;;25.69;40.91
53715;BME280;39608;55.630;37.864;2022-08-19T07:08:19;100234.75;;;25.61;41.07
53715;BME280;39608;55.630;37.864;2022-08-19T07:13:23;100226.03;;;25.63;40.23
53715;BME280;39608;55.630;37.864;2022-08-19T07:18:25;100231.09;;;25.54;40.43
53715;BME280;39608;55.630;37.864;2022-08-19T07:23:27;100243.06;;;25.58;40.63
53715;BME280;39608;55.630;37.864;2022-08-19T07:28:30;100252.44;;;25.84;40.40
53715;BME280;39608;55.630;37.864;2022-08-19T07:33:33;100233.66;;;26.07;40.08
53715;BME280;39608;55.630;37.864;2022-08-19T07:38:39;100255.97;;;26.63;39.52
53715;BME280;39608;55.630;37.864;2022-08-19T07:43:42;100255.50;;;27.13;38.91
53715;BME280;39608;55.630;37.864;2022-08-19T07:48:48;100255.72;;;27.60;37.52
53715;BME280;39608;55.630;37.864;2022-08-19T07:53:50;100255.78;;;27.85;37.47
53715;BME280;39608;55.630;37.864;2022-08-19T07:58:54;100256.56;;;27.75;37.46
53715;BME280;39608;55.630;37.864;2022-08-19T08:03:57;100247.81;;;27.80;37.34
53715;BME280;39608;55.630;37.864;2022-08-19T08:09:18;100245.88;;;27.91;37.96
53715;BME280;39608;55.630;37.864;2022-08-19T08:14:27;100244.69;;;28.10;36.85
53715;BME280;39608;55.630;37.864;2022-08-19T08:19:30;100247.06;;;27.97;36.13
53715;BME280;39608;55.630;37.864;2022-08-19T08:24:33;100243.44;;;27.90;35.80
53715;BME280;39608;55.630;37.864;2022-08-19T08:29:38;100260.25;;;28.44;35.65
53715;BME280;39608;55.630;37.864;2022-08-19T08:34:43;100263.00;;;28.94;34.09
53715;BME280;39608;55.630;37.864;2022-08-19T08:39:45;100257.16;;;29.70;33.31
53715;BME280;39608;55.630;37.864;2022-08-19T08:44:53;100259.03;;;29.91;33.11
53715;BME280;39608;55.630;37.864;2022-08-19T08:50:01;100259.81;;;29.95;32.63
53715;BME280;39608;55.630;37.864;2022-08-19T08:55:06;100259.28;;;30.15;32.04
53715;BME280;39608;55.630;37.864;2022-08-19T09:00:17;100250.69;;;30.44;32.54
53715;BME280;39608;55.630;37.864;2022-08-19T09:05:21;100260.13;;;31.06;31.83
53715;BME280;39608;55.630;37.864;2022-08-19T09:10:29;100262.09;;;31.40;31.21
53715;BME280;39608;55.630;37.864;2022-08-19T09:15:41;100250.50;;;31.38;31.02
53715;BME280;39608;55.630;37.864;2022-08-19T09:20:46;100263.91;;;31.23;29.21
53715;BME280;39608;55.630;37.864;2022-08-19T09:25:48;100251.19;;;30.77;28.88
53715;BME280;39608;55.630;37.864;2022-08-19T09:30:53;100262.09;;;30.64;28.76
53715;BME280;39608;55.630;37.864;2022-08-19T09:36:04;100264.22;;;30.91;28.70
53715;BME280;39608;55.630;37.864;2022-08-19T09:41:08;100268.78;;;31.15;26.59
53715;BME280;39608;55.630;37.864;2022-08-19T09:46:15;100257.38;;;31.33;27.09
53715;BME280;39608;55.630;37.864;2022-08-19T09:51:22;100277.09;;;31.26;26.82
53715;BME280;39608;55.630;37.864;2022-08-19T09:56:24;100275.75;;;31.03;26.36
53715;BME280;39608;55.630;37.864;2022-08-19T10:01:29;100292.28;;;31.29;25.83
53715;BME280;39608;55.630;37.864;2022-08-19T10:06:32;100285.59;;;31.15;24.27
53715;BME280;39608;55.630;37.864;2022-08-19T10:11:34;100297.38;;;31.37;24.31
53715;BME280;39608;55.630;37.864;2022-08-19T10:16:38;100297.63;;;31.81;23.71
53715;BME280;39608;55.630;37.864;2022-08-19T10:21:42;100297.41;;;31.68;23.41
53715;BME280;39608;55.630;37.864;2022-08-19T10:26:44;100303.53;;;31.60;23.51
53715;BME280;39608;55.630;37.864;2022-08-19T10:31:50;100311.38;;;32.03;22.97
53715;BME280;39608;55.630;37.864;2022-08-19T10:36:52;100312.81;;;32.15;22.08
53715;BME280;39608;55.630;37.864;2022-08-19T10:41:55;100308.25;;;32.24;22.52
53715;BME280;39608;55.630;37.864;2022-08-19T10:46:59;100299.09;;;32.71;22.65
53715;BME280;39608;55.630;37.864;2022-08-19T10:52:01;100301.19;;;32.64;22.24
53715;BME280;39608;55.630;37.864;2022-08-19T10:57:23;100293.34;;;32.00;22.56
53715;BME280;39608;55.630;37.864;2022-08-19T11:02:31;100300.41;;;31.85;23.22
53715;BME280;39608;55.630;37.864;2022-08-19T11:07:33;100298.38;;;31.85;23.07
53715;BME280;39608;55.630;37.864;2022-08-19T11:12:37;100291.28;;;31.77;23.07
53715;BME280;39608;55.630;37.864;2022-08-19T11:17:43;100300.75;;;31.56;23.59
53715;BME280;39608;55.630;37.864;2022-08-19T11:22:45;100293.94;;;31.88;24.90
53715;BME280;39608;55.630;37.864;2022-08-19T11:27:47;100290.63;;;31.66;23.21
53715;BME280;39608;55.630;37.864;2022-08-19T11:32:53;100297.56;;;31.54;23.71
53715;BME280;39608;55.630;37.864;2022-08-19T11:37:55;100285.50;;;31.61;23.51
53715;BME280;39608;55.630;37.864;2022-08-19T11:43:00;100278.84;;;31.44;24.58
53715;BME280;39608;55.630;37.864;2022-08-19T11:48:04;100283.69;;;31.74;24.03
53715;BME280;39608;55.630;37.864;2022-08-19T11:53:06;100275.88;;;31.89;24.95
53715;BME280;39608;55.630;37.864;2022-08-19T11:58:08;100278.13;;;32.01;24.36
53715;BME280;39608;55.630;37.864;2022-08-19T12:03:12;100282.50;;;32.02;24.68
53715;BME280;39608;55.630;37.864;2022-08-19T12:08:15;100282.91;;;32.01;24.74
53715;BME280;39608;55.630;37.864;2022-08-19T12:13:18;100256.50;;;31.98;25.19
53715;BME280;39608;55.630;37.864;2022-08-19T12:18:21;100274.22;;;32.22;24.80
53715;BME280;39608;55.630;37.864;2022-08-19T12:23:25;100275.94;;;32.13;24.61
53715;BME280;39608;55.630;37.864;2022-08-19T12:28:27;100280.50;;;32.78;24.50
53715;BME280;39608;55.630;37.864;2022-08-19T12:33:31;100280.38;;;33.29;23.35
53715;BME280;39608;55.630;37.864;2022-08-19T12:38:34;100280.63;;;33.14;23.65
53715;BME280;39608;55.630;37.864;2022-08-19T12:43:36;100273.78;;;32.95;23.92
53715;BME280;39608;55.630;37.864;2022-08-19T12:48:40;100280.88;;;33.23;23.82
53715;BME280;39608;55.630;37.864;2022-08-19T12:53:47;100262.09;;;33.37;23.85
53715;BME280;39608;55.630;37.864;2022-08-19T12:58:50;100284.53;;;33.20;24.00
53715;BME280;39608;55.630;37.864;2022-08-19T13:03:53;100285.75;;;32.52;24.26
53715;BME280;39608;55.630;37.864;2022-08-19T13:08:55;100270.63;;;31.64;25.36
53715;BME280;39608;55.630;37.864;2022-08-19T13:13:58;100269.03;;;30.90;26.36
53715;BME280;39608;55.630;37.864;2022-08-19T13:19:02;100282.06;;;30.13;27.58
53715;BME280;39608;55.630;37.864;2022-08-19T13:24:06;100293.94;;;29.58;28.10
53715;BME280;39608;55.630;37.864;2022-08-19T13:29:08;100286.50;;;29.15;28.45
53715;BME280;39608;55.630;37.864;2022-08-19T13:34:32;100286.94;;;28.99;28.64
53715;BME280;39608;55.630;37.864;2022-08-19T13:39:35;100285.38;;;28.87;29.00
53715;BME280;39608;55.630;37.864;2022-08-19T13:44:37;100283.72;;;29.04;28.63
53715;BME280;39608;55.630;37.864;2022-08-19T13:49:41;100287.38;;;28.76;29.17
53715;BME280;39608;55.630;37.864;2022-08-19T13:54:43;100300.53;;;28.72;29.37
53715;BME280;39608;55.630;37.864;2022-08-19T13:59:45;100305.31;;;28.64;29.73
53715;BME280;39608;55.630;37.864;2022-08-19T14:04:49;100306.47;;;29.06;29.04
53715;BME280;39608;55.630;37.864;2022-08-19T14:09:53;100311.66;;;29.08;29.04
53715;BME280;39608;55.630;37.864;2022-08-19T14:14:56;100307.69;;;28.47;29.92
53715;BME280;39608;55.630;37.864;2022-08-19T14:20:00;100313.63;;;28.10;30.29
53715;BME280;39608;55.630;37.864;2022-08-19T14:25:11;100296.41;;;27.82;30.42
53715;BME280;39608;55.630;37.864;2022-08-19T14:30:17;100308.72;;;27.74;30.88
53715;BME280;39608;55.630;37.864;2022-08-19T14:35:21;100305.13;;;27.66;31.04
53715;BME280;39608;55.630;37.864;2022-08-19T14:40:27;100306.22;;;27.44;31.33
53715;BME280;39608;55.630;37.864;2022-08-19T14:45:31;100310.53;;;27.34;31.54
53715;BME280;39608;55.630;37.864;2022-08-19T14:50:36;100319.25;;;27.29;31.31
53715;BME280;39608;55.630;37.864;2022-08-19T14:55:41;100318.53;;;27.43;31.43
53715;BME280;39608;55.630;37.864;2022-08-19T15:00:46;100306.38;;;27.91;31.21
53715;BME280;39608;55.630;37.864;2022-08-19T15:05:49;100315.94;;;27.93;31.02
53715;BME280;39608;55.630;37.864;2022-08-19T15:10:52;100312.28;;;27.68;31.58
53715;BME280;39608;55.630;37.864;2022-08-19T15:15:55;100322.53;;;27.49;32.03
53715;BME280;39608;55.630;37.864;2022-08-19T15:20:59;100319.34;;;27.40;32.11
53715;BME280;39608;55.630;37.864;2022-08-19T15:26:03;100324.41;;;27.27;32.09
53715;BME280;39608;55.630;37.864;2022-08-19T15:31:07;100328.66;;;27.10;32.50
53715;BME280;39608;55.630;37.864;2022-08-19T15:36:11;100338.19;;;27.05;32.76
53715;BME280;39608;55.630;37.864;2022-08-19T15:41:17;100324.19;;;26.91;32.27
53715;BME280;39608;55.630;37.864;2022-08-19T15:46:27;100349.47;;;26.75;32.46
53715;BME280;39608;55.630;37.864;2022-08-19T15:51:33;100342.22;;;26.63;32.31
53715;BME280;39608;55.630;37.864;2022-08-19T15:56:36;100348.13;;;26.54;32.92
53715;BME280;39608;55.630;37.864;2022-08-19T16:02:01;100363.13;;;26.46;32.99
53715;BME280;39608;55.630;37.864;2022-08-19T16:07:22;100367.03;;;26.41;32.75
53715;BME280;39608;55.630;37.864;2022-08-19T16:12:24;100383.25;;;26.32;33.41
53715;BME280;39608;55.630;37.864;2022-08-19T16:17:29;100382.44;;;26.32;33.23
53715;BME280;39608;55.630;37.864;2022-08-19T16:22:34;100383.97;;;26.25;33.01
53715;BME280;39608;55.630;37.864;2022-08-19T16:27:36;100381.00;;;26.07;33.57
53715;BME280;39608;55.630;37.864;2022-08-19T16:32:41;100378.44;;;25.95;33.52
53715;BME280;39608;55.630;37.864;2022-08-19T16:37:45;100376.66;;;25.79;33.62
53715;BME280;39608;55.630;37.864;2022-08-19T16:42:48;100386.88;;;25.72;33.88
53715;BME280;39608;55.630;37.864;2022-08-19T16:47:51;100398.25;;;25.63;33.95
53715;BME280;39608;55.630;37.864;2022-08-19T16:52:55;100404.91;;;25.55;34.18
53715;BME280;39608;55.630;37.864;2022-08-19T16:57:58;100414.22;;;25.39;34.58
53715;BME280;39608;55.630;37.864;2022-08-19T17:03:04;100424.31;;;25.28;34.47
53715;BME280;39608;55.630;37.864;2022-08-19T17:08:10;100428.16;;;25.20;34.57
53715;BME280;39608;55.630;37.864;2022-08-19T17:13:14;100420.78;;;25.04;34.68
53715;BME280;39608;55.630;37.864;2022-08-19T17:18:16;100428.47;;;24.91;34.91
53715;BME280;39608;55.630;37.864;2022-08-19T17:23:21;100435.06;;;24.83;34.87
53715;BME280;39608;55.630;37.864;2022-08-19T17:28:26;100430.50;;;24.71;34.95
53715;BME280;39608;55.630;37.864;2022-08-19T17:33:29;100421.91;;;24.57;34.83
53715;BME280;39608;55.630;37.864;2022-08-19T17:38:33;100436.16;;;24.55;34.71
53715;BME280;39608;55.630;37.864;2022-08-19T17:43:36;100425.50;;;24.38;34.81
53715;BME280;39608;55.630;37.864;2022-08-19T17:48:38;100429.66;;;24.28;34.67
53715;BME280;39608;55.630;37.864;2022-08-19T17:53:43;100427.63;;;24.25;34.37
53715;BME280;39608;55.630;37.864;2022-08-19T17:58:46;100434.06;;;24.09;34.05
53715;BME280;39608;55.630;37.864;2022-08-19T18:03:48;100438.63;;;24.02;33.96
53715;BME280;39608;55.630;37.864;2022-08-19T18:08:53;100440.91;;;23.96;33.79
53715;BME280;39608;55.630;37.864;2022-08-19T18:13:56;100438.69;;;23.86;33.74
53715;BME280;39608;55.630;37.864;2022-08-19T18:18:59;100433.69;;;23.75;33.61
53715;BME280;39608;55.630;37.864;2022-08-19T18:24:03;100436.41;;;23.72;33.61
53715;BME280;39608;55.630;37.864;2022-08-19T18:29:12;100452.84;;;23.65;33.42
53715;BME280;39608;55.630;37.864;2022-08-19T18:34:15;100456.00;;;23.63;33.31
53715;BME280;39608;55.630;37.864;2022-08-19T18:39:20;100455.09;;;23.59;33.44
53715;BME280;39608;55.630;37.864;2022-08-19T18:44:40;100443.25;;;23.43;33.56
53715;BME280;39608;55.630;37.864;2022-08-19T18:49:59;100445.38;;;23.33;33.92
53715;BME280;39608;55.630;37.864;2022-08-19T18:55:09;100450.31;;;23.24;33.89
53715;BME280;39608;55.630;37.864;2022-08-19T19:00:12;100448.06;;;23.14;34.04
53715;BME280;39608;55.630;37.864;2022-08-19T19:05:14;100445.38;;;23.01;33.88
53715;BME280;39608;55.630;37.864;2022-08-19T19:10:18;100455.56;;;22.97;34.01
53715;BME280;39608;55.630;37.864;2022-08-19T19:15:20;100447.22;;;22.81;33.94
53715;BME280;39608;55.630;37.864;2022-08-19T19:20:23;100450.97;;;22.73;33.90
53715;BME280;39608;55.630;37.864;2022-08-19T19:25:33;100451.56;;;22.66;33.76
53715;BME280;39608;55.630;37.864;2022-08-19T19:30:36;100458.16;;;22.62;33.58
53715;BME280;39608;55.630;37.864;2022-08-19T19:35:39;100450.41;;;22.51;33.41
53715;BME280;39608;55.630;37.864;2022-08-19T19:40:44;100452.69;;;22.49;33.74
53715;BME280;39608;55.630;37.864;2022-08-19T19:45:47;100458.50;;;22.44;33.27
53715;BME280;39608;55.630;37.864;2022-08-19T19:50:49;100451.03;;;22.32;33.44
53715;BME280;39608;55.630;37.864;2022-08-19T19:55:54;100464.50;;;22.34;33.24
53715;BME280;39608;55.630;37.864;2022-08-19T20:00:58;100473.72;;;22.26;33.33
53715;BME280;39608;55.630;37.864;2022-08-19T20:06:02;100475.00;;;22.16;33.29
53715;BME280;39608;55.630;37.864;2022-08-19T20:11:06;100463.75;;;22.09;33.27
53715;BME280;39608;55.630;37.864;2022-08-19T20:16:08;100476.22;;;22.02;33.40
53715;BME280;39608;55.630;37.864;2022-08-19T20:21:10;100478.06;;;21.98;33.46
53715;BME280;39608;55.630;37.864;2022-08-19T20:26:14;100479.56;;;21.96;33.62
53715;BME280;39608;55.630;37.864;2022-08-19T20:31:20;100482.91;;;21.89;33.48
53715;BME280;39608;55.630;37.864;2022-08-19T20:36:24;100485.00;;;21.80;33.39
53715;BME280;39608;55.630;37.864;2022-08-19T20:41:29;100484.53;;;21.78;33.63
53715;BME280;39608;55.630;37.864;2022-08-19T20:46:31;100489.50;;;21.72;33.39
53715;BME280;39608;55.630;37.864;2022-08-19T20:51:33;100490.88;;;21.66;33.43
53715;BME280;39608;55.630;37.864;2022-08-19T20:56:37;100489.63;;;21.63;33.83
53715;BME280;39608;55.630;37.864;2022-08-19T21:01:39;100490.88;;;21.53;33.82
53715;BME280;39608;55.630;37.864;2022-08-19T21:06:44;100500.50;;;21.47;34.46
53715;BME280;39608;55.630;37.864;2022-08-19T21:11:47;100504.31;;;21.43;34.06
53715;BME280;39608;55.630;37.864;2022-08-19T21:16:49;100497.97;;;21.30;34.10
53715;BME280;39608;55.630;37.864;2022-08-19T21:21:52;100505.44;;;21.29;34.12
53715;BME280;39608;55.630;37.864;2022-08-19T21:26:55;100497.41;;;21.24;34.25
53715;BME280;39608;55.630;37.864;2022-08-19T21:31:57;100507.94;;;21.22;34.62
53715;BME280;39608;55.630;37.864;2022-08-19T21:36:59;100498.66;;;21.14;34.83
53715;BME280;39608;55.630;37.864;2022-08-19T21:42:03;100509.53;;;21.11;34.89
53715;BME280;39608;55.630;37.864;2022-08-19T21:47:05;100503.00;;;21.03;35.17
53715;BME280;39608;55.630;37.864;2022-08-19T21:52:08;100498.47;;;20.98;35.24
53715;BME280;39608;55.630;37.864;2022-08-19T21:57:20;100498.47;;;20.98;35.11
53715;BME280;39608;55.630;37.864;2022-08-19T22:02:24;100504.78;;;20.87;35.38
53715;BME280;39608;55.630;37.864;2022-08-19T22:07:27;100510.06;;;20.79;35.39
53715;BME280;39608;55.630;37.864;2022-08-19T22:12:33;100479.66;;;20.67;35.65
53715;BME280;39608;55.630;37.864;2022-08-19T22:17:36;100500.91;;;20.66;35.62
53715;BME280;39608;55.630;37.864;2022-08-19T22:22:45;100511.38;;;20.73;35.69
53715;BME280;39608;55.630;37.864;2022-08-19T22:27:50;100516.97;;;20.64;36.01
53715;BME280;39608;55.630;37.864;2022-08-19T22:32:54;100500.72;;;20.50;36.01
53715;BME280;39608;55.630;37.864;2022-08-19T22:38:00;100517.94;;;20.47;36.38
53715;BME280;39608;55.630;37.864;2022-08-19T22:43:06;100522.41;;;20.52;36.72
53715;BME280;39608;55.630;37.864;2022-08-19T22:48:11;100532.50;;;20.48;36.68
53715;BME280;39608;55.630;37.864;2022-08-19T22:53:14;100522.22;;;20.36;36.85
53715;BME280;39608;55.630;37.864;2022-08-19T22:58:17;100530.69;;;20.31;37.14
53715;BME280;39608;55.630;37.864;2022-08-19T23:03:19;100525.09;;;20.18;37.53
53715;BME280;39608;55.630;37.864;2022-08-19T23:08:22;100523.38;;;20.14;37.79
53715;BME280;39608;55.630;37.864;2022-08-19T23:13:26;100531.16;;;20.12;37.84
53715;BME280;39608;55.630;37.864;2022-08-19T23:18:28;100530.59;;;19.97;38.18
53715;BME280;39608;55.630;37.864;2022-08-19T23:23:30;100533.25;;;19.85;38.68
53715;BME280;39608;55.630;37.864;2022-08-19T23:28:34;100542.03;;;19.78;38.78
53715;BME280;39608;55.630;37.864;2022-08-19T23:33:54;100553.38;;;19.77;39.40
53715;BME280;39608;55.630;37.864;2022-08-19T23:38:58;100545.13;;;19.77;39.82
53715;BME280;39608;55.630;37.864;2022-08-19T23:44:02;100540.75;;;19.76;39.98
53715;BME280;39608;55.630;37.864;2022-08-19T23:49:05;100546.25;;;19.76;40.55
53715;BME280;39608;55.630;37.864;2022-08-19T23:54:07;100537.50;;;19.74;40.83
53715;BME280;39608;55.630;37.864;2022-08-19T23:59:12;100544.78;;;19.78;40.89
